Time;durP1;ratioP1;P1;durP2;ratioP2;P2;SDS_P1;SDS_P2;PMS_P1;PMS_P2;Temp;Humidity;BMP_temperature;BMP_pressure;BME280_temperature;BME280_humidity;BME280_pressure;Samples;Min_cycle;Max_cycle;Signal;HPM_P1;HPM_P2
2023/05/26 00:00:26;;;;;;;11.20;2.53;;;;;;;11.21;63.48;102785.44;5031560;28;20025;-77
2023/05/26 00:02:51;;;;;;;13.15;2.50;;;;;;;11.16;64.22;102792.38;5031737;28;20033;-77
2023/05/26 00:05:20;;;;;;;12.65;2.30;;;;;;;11.14;63.69;102791.50;5031180;28;20037;-77
2023/05/26 00:07:46;;;;;;;13.77;2.38;;;;;;;11.13;63.89;102794.97;5031395;28;20026;-77
2023/05/26 00:10:12;;;;;;;8.98;2.10;;;;;;;11.08;63.97;102792.34;5031630;28;20048;-77
2023/05/26 00:12:37;;;;;;;18.88;2.72;;;;;;;11.03;64.40;102794.94;5031585;28;20033;-77
2023/05/26 00:15:03;;;;;;;14.18;2.70;;;;;;;11.01;64.43;102796.66;5031197;28;20033;-77
2023/05/26 00:17:28;;;;;;;12.52;2.50;;;;;;;10.98;64.46;102799.25;5031360;28;20036;-77
2023/05/26 00:19:54;;;;;;;14.07;2.90;;;;;;;10.95;64.68;102801.84;5031472;28;20017;-77
2023/05/26 00:22:20;;;;;;;13.55;2.83;;;;;;;10.92;64.60;102804.44;5032135;28;21614;-77
2023/05/26 00:24:46;;;;;;;12.48;2.20;;;;;;;10.90;64.97;102808.78;5034974;28;20033;-78
2023/05/26 00:27:12;;;;;;;11.60;2.50;;;;;;;10.88;64.99;102807.91;5033937;28;20025;-77
2023/05/26 00:29:37;;;;;;;12.85;2.63;;;;;;;10.84;65.13;102811.34;5034106;28;20036;-77
2023/05/26 00:32:03;;;;;;;13.55;2.42;;;;;;;10.79;65.50;102811.31;5034976;28;20026;-77
2023/05/26 00:34:29;;;;;;;11.35;2.65;;;;;;;10.73;65.26;102801.75;5035341;28;20025;-78
2023/05/26 00:36:54;;;;;;;10.30;2.30;;;;;;;10.72;65.71;102805.22;5035221;28;20093;-77
2023/05/26 00:39:19;;;;;;;11.80;2.50;;;;;;;10.68;65.81;102808.66;5035081;28;20018;-77
2023/05/26 00:41:45;;;;;;;12.63;2.35;;;;;;;10.66;65.83;102806.94;5033745;28;20037;-77
2023/05/26 00:44:10;;;;;;;12.55;2.35;;;;;;;10.64;66.01;102801.69;5034856;28;20036;-77
2023/05/26 00:46:35;;;;;;;10.60;2.22;;;;;;;10.62;66.10;102808.63;5034782;28;20033;-77
2023/05/26 00:49:01;;;;;;;13.23;2.80;;;;;;;10.60;65.89;102805.13;5034775;28;20025;-77
2023/05/26 00:51:26;;;;;;;9.52;2.40;;;;;;;10.56;66.04;102806.00;5034854;28;20029;-77
2023/05/26 00:53:52;;;;;;;14.13;2.50;;;;;;;10.51;66.30;102805.09;5034450;28;20065;-77
2023/05/26 00:56:18;;;;;;;12.85;2.58;;;;;;;10.46;66.54;102811.13;5034943;28;20063;-77
2023/05/26 00:58:43;;;;;;;16.08;2.70;;;;;;;10.44;66.80;102814.59;5034927;28;20017;-77
2023/05/26 01:01:10;;;;;;;11.80;2.50;;;;;;;10.41;66.83;102814.56;5034726;28;20053;-77
2023/05/26 01:03:38;;;;;;;11.27;2.72;;;;;;;10.37;66.83;102808.44;5034765;28;20044;-81
2023/05/26 01:06:04;;;;;;;12.68;2.20;;;;;;;10.36;66.94;102814.50;5034990;28;20025;-78
2023/05/26 01:08:30;;;;;;;12.85;2.67;;;;;;;10.34;67.07;102803.22;5033188;28;20414;-78
2023/05/26 01:11:01;;;;;;;12.80;2.55;;;;;;;10.31;67.18;102813.59;5034533;28;20029;-77
2023/05/26 01:13:34;;;;;;;11.55;2.20;;;;;;;10.29;66.95;102813.59;5033874;28;20048;-77
2023/05/26 01:16:05;;;;;;;11.63;2.30;;;;;;;10.23;67.23;102817.88;5034384;28;20029;-77
2023/05/26 01:18:44;;;;;;;14.80;2.60;;;;;;;10.20;66.67;102810.91;5034406;28;20091;-77
2023/05/26 01:21:12;;;;;;;10.82;2.20;;;;;;;10.16;67.41;102816.97;5034174;28;20113;-77
2023/05/26 01:24:17;;;;;;;11.23;2.47;;;;;;;10.16;66.11;102824.78;5033066;28;20037;-77
2023/05/26 01:27:00;;;;;;;11.00;2.28;;;;;;;10.12;66.73;102823.84;5034343;28;20025;-77
2023/05/26 01:29:29;;;;;;;11.95;2.28;;;;;;;10.09;67.62;102821.22;5034285;28;20029;-77
2023/05/26 01:31:54;;;;;;;9.43;2.03;;;;;;;10.05;67.63;102819.47;5034007;28;20113;-77
2023/05/26 01:34:19;;;;;;;11.63;2.50;;;;;;;10.02;67.62;102822.03;5033163;28;20120;-77
2023/05/26 01:36:44;;;;;;;13.73;2.42;;;;;;;10.00;67.79;102826.34;5034037;28;20453;-77
2023/05/26 01:39:10;;;;;;;11.15;2.65;;;;;;;9.97;67.85;102821.13;5034072;28;20032;-77
2023/05/26 01:41:56;;;;;;;16.63;2.60;;;;;;;9.94;66.56;102821.97;5033840;28;21524;-77
2023/05/26 01:44:31;;;;;;;16.30;2.45;;;;;;;9.92;67.89;102825.41;5033437;28;20033;-77
2023/05/26 01:46:57;;;;;;;12.27;2.35;;;;;;;9.87;68.22;102830.56;5032587;28;20030;-77
2023/05/26 01:49:28;;;;;;;10.55;2.40;;;;;;;9.84;67.96;102823.63;5032798;28;20392;-77
2023/05/26 01:51:59;;;;;;;13.93;2.38;;;;;;;9.82;68.06;102829.69;5033555;28;20029;-77
2023/05/26 01:54:27;;;;;;;10.48;2.22;;;;;;;9.78;68.41;102833.94;5032239;28;20452;-77
2023/05/26 01:56:53;;;;;;;11.77;2.72;;;;;;;9.74;68.39;102821.78;5033741;28;20025;-77
2023/05/26 01:59:21;;;;;;;17.90;3.03;;;;;;;9.70;68.98;102827.81;5033276;28;20017;-77
2023/05/26 02:01:47;;;;;;;11.73;2.35;;;;;;;9.66;68.71;102821.69;5032125;28;20503;-77
2023/05/26 02:04:12;;;;;;;11.88;2.40;;;;;;;9.63;68.82;102826.91;5033645;28;20029;-77
2023/05/26 02:06:38;;;;;;;10.65;2.45;;;;;;;9.63;68.77;102828.59;5033387;28;20417;-77
2023/05/26 02:09:05;;;;;;;12.57;2.50;;;;;;;9.61;68.87;102825.13;5032905;28;20152;-77
2023/05/26 02:11:30;;;;;;;12.20;2.45;;;;;;;9.59;68.62;102832.91;5033336;28;20056;-77
2023/05/26 02:13:56;;;;;;;10.05;2.17;;;;;;;9.56;68.76;102830.28;5033463;28;20053;-77
2023/05/26 02:16:22;;;;;;;10.18;2.35;;;;;;;9.55;68.89;102829.41;5033523;28;20040;-77
2023/05/26 02:18:48;;;;;;;11.35;2.90;;;;;;;9.52;68.88;102826.78;5031906;28;20550;-77
2023/05/26 02:21:14;;;;;;;11.82;2.78;;;;;;;9.49;69.03;102831.94;5033129;28;20021;-77
2023/05/26 02:23:41;;;;;;;10.60;2.30;;;;;;;9.46;68.95;102841.44;5033349;28;20108;-77
2023/05/26 02:26:06;;;;;;;10.68;2.40;;;;;;;9.44;69.17;102841.41;5033246;28;20441;-77
2023/05/26 02:28:31;;;;;;;13.07;2.60;;;;;;;9.44;69.26;102843.13;5032872;28;20032;-77
2023/05/26 02:30:57;;;;;;;11.13;2.45;;;;;;;9.40;69.33;102837.00;5033234;28;20431;-77
2023/05/26 02:33:22;;;;;;;11.68;2.03;;;;;;;9.39;68.92;102837.91;5032713;28;20024;-77
2023/05/26 02:35:47;;;;;;;12.70;2.75;;;;;;;9.38;69.43;102841.34;5033044;28;20170;-77
2023/05/26 02:38:13;;;;;;;15.25;2.80;;;;;;;9.35;69.31;102843.91;5032714;28;20040;-77
2023/05/26 02:40:38;;;;;;;10.05;2.63;;;;;;;9.33;69.53;102835.22;5032927;28;20021;-77
2023/05/26 02:43:03;;;;;;;11.93;2.50;;;;;;;9.31;69.37;102836.91;5032850;28;20112;-77
2023/05/26 02:45:28;;;;;;;9.88;2.63;;;;;;;9.30;69.41;102835.16;5032261;28;20550;-77
2023/05/26 02:47:54;;;;;;;14.10;2.90;;;;;;;9.26;69.63;102834.28;5032278;28;20033;-77
2023/05/26 02:50:19;;;;;;;15.80;2.97;;;;;;;9.24;69.48;102831.63;5032662;28;20036;-77
2023/05/26 02:52:44;;;;;;;10.75;2.20;;;;;;;9.21;69.65;102838.53;5032514;28;20413;-77
2023/05/26 02:55:11;;;;;;;8.05;2.13;;;;;;;9.19;69.72;102841.13;5032707;28;20535;-77
2023/05/26 02:57:37;;;;;;;13.27;2.67;;;;;;;9.16;69.70;102837.59;5032259;28;20091;-77
2023/05/26 03:00:04;;;;;;;11.85;2.83;;;;;;;9.14;69.95;102836.72;5032492;28;20033;-77
2023/05/26 03:02:29;;;;;;;16.10;2.47;;;;;;;9.12;70.17;102836.69;5030910;28;20025;-77
2023/05/26 03:04:54;;;;;;;13.48;2.60;;;;;;;9.08;70.14;102842.69;5032584;28;20048;-77
2023/05/26 03:07:20;;;;;;;11.63;2.58;;;;;;;9.04;70.40;102844.38;5031024;28;20478;-77
2023/05/26 03:09:45;;;;;;;12.90;2.67;;;;;;;8.99;70.44;102840.00;5032071;28;20047;-77
2023/05/26 03:12:15;;;;;;;13.60;2.67;;;;;;;8.97;70.37;102839.94;5032206;28;20029;-77
2023/05/26 03:14:40;;;;;;;9.30;2.45;;;;;;;8.92;70.29;102837.31;5032513;28;20033;-77
2023/05/26 03:17:06;;;;;;;12.20;2.72;;;;;;;8.88;70.68;102837.25;5032091;28;20418;-77
2023/05/26 03:19:31;;;;;;;13.77;2.88;;;;;;;8.85;70.77;102842.38;5032236;28;20040;-77
2023/05/26 03:21:56;;;;;;;12.52;2.67;;;;;;;8.80;70.69;102839.75;5032121;28;20051;-77
2023/05/26 03:24:21;;;;;;;12.27;2.40;;;;;;;8.75;71.09;102849.16;5032379;28;20029;-77
2023/05/26 03:26:47;;;;;;;12.70;2.53;;;;;;;8.72;71.29;102852.59;5031836;28;20037;-76
2023/05/26 03:29:12;;;;;;;11.60;2.75;;;;;;;8.66;71.20;102852.50;5032057;28;20029;-77
2023/05/26 03:31:37;;;;;;;14.05;2.15;;;;;;;8.60;71.66;102847.25;5031974;28;20029;-77
2023/05/26 03:34:03;;;;;;;13.18;2.05;;;;;;;8.57;71.51;102853.25;5031852;28;20037;-77
2023/05/26 03:36:28;;;;;;;12.40;2.63;;;;;;;8.53;71.81;102854.06;5031828;28;20034;-77
2023/05/26 03:38:53;;;;;;;10.88;2.30;;;;;;;8.50;71.71;102854.00;5031863;28;20029;-77
2023/05/26 03:41:19;;;;;;;14.65;2.63;;;;;;;8.52;71.91;102859.22;5031544;28;20389;-77
2023/05/26 03:43:44;;;;;;;11.85;2.83;;;;;;;8.49;72.14;102858.31;5031865;28;20083;-77
2023/05/26 03:46:09;;;;;;;12.40;2.90;;;;;;;8.50;72.00;102861.78;5031733;28;20108;-77
2023/05/26 03:48:34;;;;;;;14.73;3.10;;;;;;;8.48;72.17;102864.34;5031489;28;20033;-77
2023/05/26 03:51:00;;;;;;;12.48;2.33;;;;;;;8.49;72.14;102860.91;5031788;28;20029;-77
2023/05/26 03:53:25;;;;;;;12.18;2.30;;;;;;;8.48;72.45;102869.53;5031430;28;20057;-77
2023/05/26 03:55:51;;;;;;;14.68;2.33;;;;;;;8.47;72.52;102867.75;5031578;28;20101;-77
2023/05/26 03:58:16;;;;;;;14.50;2.50;;;;;;;8.47;72.77;102878.13;5031228;28;20037;-76
2023/05/26 04:00:41;;;;;;;9.68;2.30;;;;;;;8.47;72.55;102866.91;5031814;28;20030;-77
2023/05/26 04:03:06;;;;;;;11.00;2.85;;;;;;;8.46;72.72;102865.16;5031494;28;20404;-77
2023/05/26 04:05:32;;;;;;;10.85;2.70;;;;;;;8.47;72.73;102866.91;5031538;28;20430;-76
2023/05/26 04:07:57;;;;;;;10.18;2.13;;;;;;;8.47;72.82;102859.97;5031071;28;20048;-77
2023/05/26 04:10:22;;;;;;;12.88;2.45;;;;;;;8.48;72.65;102863.50;5031548;28;20033;-77
2023/05/26 04:12:47;;;;;;;9.75;2.88;;;;;;;8.49;72.84;102860.03;5031594;28;20037;-77
2023/05/26 04:15:13;;;;;;;8.73;2.20;;;;;;;8.52;73.02;102865.28;5031446;28;20029;-77
2023/05/26 04:17:38;;;;;;;8.77;2.40;;;;;;;8.54;73.10;102863.56;5031248;28;20369;-77
2023/05/26 04:20:10;;;;;;;14.57;2.78;;;;;;;8.56;73.17;102869.66;5031539;28;20033;-77
2023/05/26 04:22:38;;;;;;;11.80;2.30;;;;;;;8.58;73.35;102875.75;5031317;28;20032;-77
2023/05/26 04:25:04;;;;;;;9.73;2.38;;;;;;;8.60;73.23;102879.25;5031163;28;20017;-77
2023/05/26 04:27:29;;;;;;;12.13;2.55;;;;;;;8.61;73.33;102878.38;5031571;28;20026;-77
2023/05/26 04:29:58;;;;;;;9.68;2.58;;;;;;;8.65;73.45;102877.59;5031352;28;20022;-77
2023/05/26 04:32:24;;;;;;;12.90;2.60;;;;;;;8.69;73.41;102877.66;5029981;28;20071;-77
2023/05/26 04:34:50;;;;;;;12.65;2.13;;;;;;;8.71;73.53;102881.13;5029582;28;20484;-77
2023/05/26 04:37:16;;;;;;;12.73;2.92;;;;;;;8.75;73.42;102872.53;5030929;28;20120;-77
2023/05/26 04:39:41;;;;;;;9.55;2.28;;;;;;;8.78;73.33;102877.78;5031192;28;20092;-77
2023/05/26 04:42:06;;;;;;;12.13;3.00;;;;;;;8.81;73.26;102888.19;5031058;28;20025;-77
2023/05/26 04:44:32;;;;;;;11.13;2.55;;;;;;;8.82;73.17;102887.34;5031192;28;20469;-77
2023/05/26 04:47:00;;;;;;;12.95;2.55;;;;;;;8.83;73.23;102881.31;5030722;28;20030;-77
2023/05/26 04:49:25;;;;;;;14.20;2.80;;;;;;;8.86;73.46;102891.75;5031022;28;20499;-77
2023/05/26 04:51:56;;;;;;;9.93;2.72;;;;;;;8.90;73.44;102883.13;5029474;28;20026;-77
2023/05/26 04:54:21;;;;;;;12.80;2.45;;;;;;;8.95;73.38;102881.47;5030694;28;20033;-77
2023/05/26 04:56:47;;;;;;;12.40;2.53;;;;;;;9.00;73.11;102880.69;5030629;28;20030;-76
2023/05/26 04:59:12;;;;;;;12.40;2.72;;;;;;;9.03;73.16;102884.19;5029782;28;20034;-77
2023/05/26 05:01:38;;;;;;;14.77;3.40;;;;;;;9.06;73.24;102888.53;5030269;28;20033;-77
2023/05/26 05:04:03;;;;;;;11.77;2.38;;;;;;;9.12;73.12;102893.81;5030040;28;20033;-77
2023/05/26 05:06:28;;;;;;;14.63;2.58;;;;;;;9.15;73.08;102893.88;5030679;28;20044;-77
2023/05/26 05:08:54;;;;;;;14.07;2.70;;;;;;;9.20;73.20;102894.81;5030518;28;20110;-77
2023/05/26 05:11:19;;;;;;;14.75;2.88;;;;;;;9.25;72.79;102895.72;5033875;28;20025;-77
2023/05/26 05:13:44;;;;;;;14.85;3.10;;;;;;;9.32;72.94;102895.81;5033213;28;20044;-77
2023/05/26 05:16:10;;;;;;;15.35;2.90;;;;;;;9.36;73.34;102892.41;5033203;28;20041;-77
2023/05/26 05:18:35;;;;;;;14.65;2.67;;;;;;;9.42;72.97;102900.25;5033978;28;20025;-77
2023/05/26 05:21:00;;;;;;;14.10;3.17;;;;;;;9.49;73.18;102904.69;5034693;28;20477;-77
2023/05/26 05:23:26;;;;;;;12.18;2.80;;;;;;;9.56;72.43;102911.69;5034114;28;20068;-77
2023/05/26 05:25:52;;;;;;;14.40;3.13;;;;;;;9.61;72.38;102903.97;5033271;28;20029;-77
2023/05/26 05:28:17;;;;;;;13.38;2.78;;;;;;;9.68;72.98;102899.72;5032729;28;20116;-77
2023/05/26 05:30:43;;;;;;;12.55;3.08;;;;;;;9.72;72.27;102901.50;5033312;28;20121;-77
2023/05/26 05:33:08;;;;;;;14.50;3.28;;;;;;;9.75;71.90;102901.50;5033672;28;20040;-77
2023/05/26 05:35:33;;;;;;;15.25;3.40;;;;;;;9.80;71.94;102904.19;5034129;28;20025;-77
2023/05/26 05:37:59;;;;;;;15.02;2.80;;;;;;;9.86;71.38;102906.81;5034245;28;20531;-78
2023/05/26 05:40:24;;;;;;;14.15;3.15;;;;;;;9.91;72.03;102902.53;5033728;28;20036;-77
2023/05/26 05:42:50;;;;;;;10.23;2.60;;;;;;;9.96;70.96;102907.78;5033918;28;20103;-77
2023/05/26 05:45:15;;;;;;;15.68;3.30;;;;;;;10.00;71.39;102907.81;5033287;28;20026;-77
2023/05/26 05:47:41;;;;;;;15.50;2.90;;;;;;;10.05;71.30;102905.28;5033617;28;20029;-77
2023/05/26 05:50:07;;;;;;;15.32;3.00;;;;;;;10.11;71.25;102907.94;5034120;28;20017;-77
2023/05/26 05:52:33;;;;;;;12.50;2.70;;;;;;;10.16;70.87;102914.06;5033824;28;20053;-77
2023/05/26 05:54:58;;;;;;;16.45;3.20;;;;;;;10.21;69.86;102910.63;5033946;28;20037;-77
2023/05/26 05:57:23;;;;;;;12.50;3.00;;;;;;;10.26;71.46;102919.34;5033996;28;20029;-77
2023/05/26 05:59:48;;;;;;;13.50;3.00;;;;;;;10.31;70.81;102922.88;5031920;28;20021;-77
2023/05/26 06:02:14;;;;;;;15.98;3.00;;;;;;;10.37;70.84;102917.72;5033571;28;20465;-77
2023/05/26 06:04:39;;;;;;;13.45;2.97;;;;;;;10.43;70.50;102927.34;5033793;28;20029;-77
2023/05/26 06:07:04;;;;;;;12.85;2.85;;;;;;;10.50;70.18;102930.88;5032468;28;20037;-77
2023/05/26 06:09:30;;;;;;;13.68;3.10;;;;;;;10.55;70.16;102931.78;5033562;28;20432;-77
2023/05/26 06:11:55;;;;;;;11.68;3.17;;;;;;;10.62;70.17;102933.56;5032308;28;20028;-77
2023/05/26 06:14:20;;;;;;;13.60;3.08;;;;;;;10.69;70.15;102937.97;5033197;28;20370;-77
2023/05/26 06:16:46;;;;;;;12.98;3.05;;;;;;;10.78;69.17;102930.19;5033389;28;20036;-78
2023/05/26 06:19:11;;;;;;;15.77;3.15;;;;;;;10.84;68.93;102936.31;5033571;28;20034;-78
2023/05/26 06:21:36;;;;;;;12.93;2.88;;;;;;;10.88;68.08;102940.69;5032919;28;20087;-77
2023/05/26 06:24:01;;;;;;;17.33;3.45;;;;;;;10.93;68.40;102946.81;5033498;28;20047;-77
2023/05/26 06:26:27;;;;;;;17.00;3.47;;;;;;;10.97;67.56;102929.47;5033354;28;20377;-78
2023/05/26 06:28:52;;;;;;;12.88;2.70;;;;;;;10.98;67.81;102941.63;5033054;28;20065;-78
2023/05/26 06:31:17;;;;;;;16.63;3.70;;;;;;;10.99;67.17;102943.38;5032003;28;20043;-78
2023/05/26 06:33:42;;;;;;;15.32;2.92;;;;;;;11.04;68.06;102937.34;5032764;28;20029;-78
2023/05/26 06:36:10;;;;;;;15.65;2.97;;;;;;;11.12;67.24;102934.78;5032566;28;20468;-78
2023/05/26 06:38:35;;;;;;;16.75;2.92;;;;;;;11.18;67.15;102944.34;5031267;28;20021;-78
2023/05/26 06:41:00;;;;;;;15.32;3.47;;;;;;;11.20;66.67;102940.03;5032278;28;20492;-79
2023/05/26 06:43:26;;;;;;;11.07;2.13;;;;;;;11.27;67.49;102943.53;5032697;28;20021;-78
2023/05/26 06:45:51;;;;;;;15.18;3.13;;;;;;;11.28;66.12;102943.53;5032682;28;20029;-79
2023/05/26 06:48:16;;;;;;;12.90;3.10;;;;;;;11.32;67.05;102940.09;5032812;28;20033;-78
2023/05/26 06:50:41;;;;;;;15.43;3.00;;;;;;;11.31;66.81;102940.94;5032978;28;20021;-79
2023/05/26 06:53:07;;;;;;;13.32;3.20;;;;;;;11.34;66.16;102943.56;5032455;28;20412;-78
2023/05/26 06:55:32;;;;;;;17.65;3.20;;;;;;;11.36;65.31;102941.84;5032769;28;20083;-78
2023/05/26 06:57:57;;;;;;;10.98;2.58;;;;;;;11.39;66.35;102940.97;5032329;28;20028;-79
2023/05/26 07:00:23;;;;;;;13.32;2.75;;;;;;;11.43;65.47;102950.56;5032799;28;20032;-78
2023/05/26 07:02:48;;;;;;;13.90;3.08;;;;;;;11.47;65.03;102943.63;5032016;28;20025;-79
2023/05/26 07:05:13;;;;;;;14.35;2.88;;;;;;;11.49;66.45;102948.00;5032746;28;20029;-78
2023/05/26 07:07:38;;;;;;;12.63;3.25;;;;;;;11.50;65.22;102946.25;5032553;28;20087;-78
2023/05/26 07:10:04;;;;;;;11.52;2.60;;;;;;;11.51;66.13;102942.78;5031624;28;20537;-79
2023/05/26 07:12:29;;;;;;;11.70;2.85;;;;;;;11.56;65.32;102951.50;5031568;28;20021;-79
2023/05/26 07:14:55;;;;;;;15.95;3.10;;;;;;;11.57;64.32;102941.91;5031300;28;20108;-78
2023/05/26 07:17:20;;;;;;;10.88;2.78;;;;;;;11.59;64.64;102940.19;5032260;28;20037;-78
2023/05/26 07:19:45;;;;;;;11.90;2.78;;;;;;;11.62;65.08;102946.28;5031911;28;20117;-78
2023/05/26 07:22:11;;;;;;;9.70;2.60;;;;;;;11.65;64.69;102946.31;5031748;28;20040;-78
2023/05/26 07:24:36;;;;;;;12.50;2.75;;;;;;;11.67;64.67;102947.19;5032084;28;20048;-79
2023/05/26 07:27:01;;;;;;;13.63;3.08;;;;;;;11.72;64.45;102955.00;5031610;28;20060;-78
2023/05/26 07:29:26;;;;;;;15.48;2.90;;;;;;;11.75;63.01;102959.38;5031909;28;20852;-78
2023/05/26 07:31:52;;;;;;;10.27;2.75;;;;;;;11.78;63.60;102954.19;5031094;28;20060;-78
2023/05/26 07:34:17;;;;;;;10.85;2.47;;;;;;;11.83;64.51;102957.66;5032178;28;20526;-78
2023/05/26 07:36:43;;;;;;;17.00;3.30;;;;;;;11.84;63.85;102952.47;5032032;28;20025;-78
2023/05/26 07:39:08;;;;;;;12.57;2.58;;;;;;;11.86;63.52;102959.44;5031733;28;20032;-78
2023/05/26 07:41:35;;;;;;;15.68;3.55;;;;;;;11.90;63.62;102951.59;5030955;28;20080;-78
2023/05/26 07:44:00;;;;;;;14.27;3.42;;;;;;;11.96;63.81;102951.59;5031718;28;20463;-79
2023/05/26 07:46:25;;;;;;;15.07;3.55;;;;;;;12.01;63.22;102953.38;5032430;28;20049;-79
2023/05/26 07:48:51;;;;;;;11.73;2.80;;;;;;;12.02;63.13;102955.13;5031773;28;20076;-78
2023/05/26 07:51:16;;;;;;;16.00;2.95;;;;;;;12.04;63.84;102950.78;5031781;28;20045;-78
2023/05/26 07:53:41;;;;;;;11.48;3.03;;;;;;;12.06;63.14;102952.53;5031719;28;20132;-78
2023/05/26 07:56:07;;;;;;;13.20;3.05;;;;;;;12.10;63.44;102953.44;5031732;28;20023;-78
2023/05/26 07:58:32;;;;;;;11.07;2.90;;;;;;;12.09;62.30;102947.31;5031670;28;20025;-78
2023/05/26 08:00:58;;;;;;;9.13;2.63;;;;;;;12.12;62.72;102946.47;5031681;28;20033;-78
2023/05/26 08:03:23;;;;;;;10.70;2.60;;;;;;;12.16;63.96;102950.81;5031758;28;20024;-78
2023/05/26 08:05:48;;;;;;;11.38;2.97;;;;;;;12.16;61.94;102953.41;5031604;28;20433;-78
2023/05/26 08:08:14;;;;;;;11.55;3.17;;;;;;;12.18;61.62;102946.47;5031500;28;20029;-78
2023/05/26 08:10:39;;;;;;;10.00;2.70;;;;;;;12.21;62.88;102961.28;5031775;28;20033;-78
2023/05/26 08:13:04;;;;;;;13.25;3.05;;;;;;;12.24;64.28;102956.94;5031615;28;20060;-78
2023/05/26 08:15:30;;;;;;;11.57;3.00;;;;;;;12.28;62.44;102956.06;5031532;28;20429;-78
2023/05/26 08:17:55;;;;;;;11.38;3.28;;;;;;;12.34;61.98;102951.69;5031522;28;20041;-78
2023/05/26 08:20:21;;;;;;;12.40;2.72;;;;;;;12.36;62.18;102958.69;5031673;28;20488;-78
2023/05/26 08:22:46;;;;;;;12.27;2.90;;;;;;;12.36;60.96;102955.19;5031416;28;20028;-78
2023/05/26 08:25:12;;;;;;;11.15;2.90;;;;;;;12.39;61.29;102955.19;5031466;28;20476;-79
2023/05/26 08:27:38;;;;;;;10.75;3.00;;;;;;;12.41;62.02;102951.72;5031388;28;20056;-79
2023/05/26 08:30:04;;;;;;;10.85;2.75;;;;;;;12.45;62.41;102950.84;5031419;28;20072;-79
2023/05/26 08:32:29;;;;;;;14.77;2.80;;;;;;;12.49;62.00;102956.94;5031446;28;20156;-78
2023/05/26 08:34:54;;;;;;;14.57;3.17;;;;;;;12.49;62.07;102943.88;5031418;28;20100;-78
2023/05/26 08:37:20;;;;;;;11.77;3.20;;;;;;;12.52;62.03;102945.63;5031632;28;20030;-78
2023/05/26 08:39:45;;;;;;;15.77;3.10;;;;;;;12.54;61.31;102949.97;5031422;28;20029;-78
2023/05/26 08:42:32;;;;;;;12.00;2.97;;;;;;;12.59;61.92;102940.41;5031157;28;20044;-78
2023/05/26 08:44:57;;;;;;;13.00;2.80;;;;;;;12.62;60.74;102941.28;5034788;28;20033;-78
2023/05/26 08:47:24;;;;;;;11.25;2.80;;;;;;;12.66;61.60;102937.78;5035174;28;20032;-78
2023/05/26 08:49:54;;;;;;;9.25;2.80;;;;;;;12.67;60.02;102940.41;5034988;28;20025;-82
2023/05/26 08:52:20;;;;;;;11.48;2.60;;;;;;;12.71;59.79;102941.25;5033555;28;20107;-78
2023/05/26 08:54:48;;;;;;;13.90;3.05;;;;;;;12.74;59.37;102941.28;5034923;28;20025;-78
2023/05/26 08:57:14;;;;;;;11.02;2.88;;;;;;;12.78;58.94;102940.41;5035119;28;20104;-78
2023/05/26 08:59:40;;;;;;;11.77;3.08;;;;;;;12.81;59.64;102932.53;5034868;28;20495;-78
2023/05/26 09:02:06;;;;;;;13.27;3.20;;;;;;;12.85;61.14;102939.50;5034754;28;20083;-78
2023/05/26 09:04:31;;;;;;;16.17;3.28;;;;;;;12.88;60.51;102939.50;5035156;28;20528;-78
2023/05/26 09:06:58;;;;;;;10.85;3.05;;;;;;;12.93;61.09;102936.88;5034893;28;20070;-78
2023/05/26 09:09:24;;;;;;;13.18;3.03;;;;;;;12.97;59.40;102932.53;5034627;28;20021;-78
2023/05/26 09:11:49;;;;;;;12.45;3.00;;;;;;;13.00;59.96;102938.63;5034626;28;20544;-78
2023/05/26 09:14:21;;;;;;;11.77;2.95;;;;;;;13.01;58.87;102934.25;5033344;28;20021;-78
2023/05/26 09:16:47;;;;;;;10.73;2.75;;;;;;;13.02;57.56;102935.97;5034567;28;20021;-78
2023/05/26 09:19:18;;;;;;;10.80;3.08;;;;;;;13.02;59.19;102936.88;5034500;28;20025;-78
2023/05/26 09:21:44;;;;;;;;;;;;;;;13.08;59.91;102935.97;5031298;28;20056;-79
2023/05/26 09:24:09;;;;;;;11.40;2.53;;;;;;;13.11;57.61;102945.53;5033405;28;19968;-79
2023/05/26 09:26:37;;;;;;;8.27;2.33;;;;;;;13.12;57.78;102937.72;5034311;28;20057;-79
2023/05/26 09:29:05;;;;;;;10.45;2.38;;;;;;;13.18;57.19;102937.69;5034750;28;20025;-79
2023/05/26 09:31:41;;;;;;;8.48;2.55;;;;;;;13.23;57.21;102937.69;5032905;28;20476;-79
2023/05/26 09:34:08;;;;;;;12.00;2.80;;;;;;;13.31;57.34;102948.13;5032940;28;20087;-79
2023/05/26 09:36:34;;;;;;;15.25;2.97;;;;;;;13.34;57.57;102943.75;5033982;28;20036;-79
2023/05/26 09:39:00;;;;;;;11.63;2.78;;;;;;;13.38;58.86;102944.59;5034178;28;20017;-79
2023/05/26 09:41:35;;;;;;;11.25;2.70;;;;;;;13.43;57.29;102947.22;5033977;28;20408;-79
2023/05/26 09:44:07;;;;;;;11.70;3.00;;;;;;;13.48;56.10;102950.69;5032843;28;20401;-80
2023/05/26 09:46:34;;;;;;;10.30;2.88;;;;;;;13.50;56.23;102949.81;5034034;28;20028;-78
2023/05/26 09:48:59;;;;;;;10.70;2.88;;;;;;;13.55;55.71;102946.31;5033863;28;20516;-79
2023/05/26 09:51:30;;;;;;;7.80;2.70;;;;;;;13.57;54.79;102945.44;5032977;28;20030;-79
2023/05/26 09:53:55;;;;;;;10.13;3.00;;;;;;;13.61;55.09;102948.91;5032742;28;20037;-80
2023/05/26 09:56:24;;;;;;;8.43;2.30;;;;;;;13.62;56.12;102942.78;5032306;28;20037;-81
2023/05/26 09:58:51;;;;;;;9.45;2.90;;;;;;;13.66;57.04;102940.16;5032973;28;20391;-82
2023/05/26 10:01:18;;;;;;;10.38;2.80;;;;;;;13.68;55.20;102942.75;5033245;28;20033;-78
2023/05/26 10:03:44;;;;;;;9.88;2.95;;;;;;;13.71;54.32;102936.66;5032591;28;20022;-79
2023/05/26 10:06:10;;;;;;;11.45;2.90;;;;;;;13.77;55.21;102942.72;5032456;28;20045;-79
2023/05/26 10:08:39;;;;;;;12.93;2.97;;;;;;;13.80;54.62;102937.47;5033300;28;20442;-79
2023/05/26 10:11:04;;;;;;;9.88;2.85;;;;;;;13.85;55.48;102928.69;5032318;28;20021;-79
2023/05/26 10:13:31;;;;;;;13.02;2.90;;;;;;;13.89;54.43;102935.66;5033274;28;20026;-79
2023/05/26 10:15:56;;;;;;;12.30;2.70;;;;;;;13.91;55.59;102929.56;5032189;28;20043;-79
2023/05/26 10:18:21;;;;;;;8.85;3.08;;;;;;;13.94;53.37;102926.06;5033498;28;20377;-79
2023/05/26 10:20:49;;;;;;;8.95;2.70;;;;;;;13.99;55.54;102918.16;5033246;28;20025;-79
2023/05/26 10:23:28;;;;;;;10.23;2.90;;;;;;;14.02;53.17;102920.75;5033320;28;20477;-79
2023/05/26 10:26:07;;;;;;;9.60;2.63;;;;;;;14.04;52.83;102914.63;5032468;28;20527;-79
2023/05/26 10:28:53;;;;;;;8.38;2.35;;;;;;;14.05;54.31;102915.50;5032351;28;20028;-79
2023/05/26 10:31:29;;;;;;;8.00;2.30;;;;;;;14.09;54.29;102912.84;5032011;28;20477;-79
2023/05/26 10:33:56;;;;;;;8.77;2.42;;;;;;;14.17;53.67;102919.78;5033186;28;20021;-79
2023/05/26 10:36:21;;;;;;;10.55;2.90;;;;;;;14.21;54.49;102911.00;5033083;28;20030;-79
2023/05/26 10:38:49;;;;;;;11.85;2.60;;;;;;;14.23;53.06;102909.25;5033106;28;20026;-79
2023/05/26 10:41:28;;;;;;;8.80;2.85;;;;;;;14.25;53.80;102902.25;5032943;28;20076;-79
2023/05/26 10:43:55;;;;;;;10.40;2.90;;;;;;;14.32;53.55;102913.56;5032296;28;20178;-79
2023/05/26 10:46:20;;;;;;;10.07;2.55;;;;;;;14.35;51.73;102910.91;5031967;28;20415;-79
2023/05/26 10:48:56;;;;;;;8.95;2.67;;;;;;;14.40;54.45;102911.75;5031476;28;20029;-79
2023/05/26 10:51:25;;;;;;;7.40;2.20;;;;;;;14.47;50.88;102909.94;5032645;28;20033;-79
2023/05/26 10:53:51;;;;;;;11.05;2.38;;;;;;;14.52;52.34;102911.63;5032677;28;20477;-79
2023/05/26 10:56:18;;;;;;;8.18;2.40;;;;;;;14.53;49.41;102904.63;5032762;28;20060;-80
2023/05/26 10:58:55;;;;;;;8.43;2.33;;;;;;;14.53;51.59;102908.13;5031463;28;20052;-79
2023/05/26 11:01:31;;;;;;;10.15;2.55;;;;;;;14.57;51.12;102908.97;5031722;28;20032;-79
2023/05/26 11:04:08;;;;;;;8.35;2.40;;;;;;;14.62;51.29;102904.56;5032670;28;20031;-79
2023/05/26 11:06:43;;;;;;;9.15;2.28;;;;;;;14.68;50.17;102907.16;5030769;28;20441;-79
2023/05/26 11:09:09;;;;;;;10.32;2.28;;;;;;;14.71;49.83;102904.50;5031713;28;20026;-80
2023/05/26 11:11:38;;;;;;;7.35;2.20;;;;;;;14.73;48.03;102899.25;5029659;28;20487;-80
2023/05/26 11:14:12;;;;;;;7.78;2.35;;;;;;;14.76;49.85;102898.34;5031428;28;20164;-80
2023/05/26 11:16:40;;;;;;;7.53;2.40;;;;;;;14.78;49.62;102896.59;5032052;28;20112;-79
2023/05/26 11:19:07;;;;;;;7.53;2.28;;;;;;;14.79;47.67;102893.06;5032561;28;20370;-80